Time;durP1;ratioP1;P1;durP2;ratioP2;P2;SDS_P1;SDS_P2;PMS_P1;PMS_P2;Temp;Humidity;BMP_temperature;BMP_pressure;BME280_temperature;BME280_humidity;BME280_pressure;Samples;Min_cycle;Max_cycle;Signal;HPM_P1;HPM_P2
2022/03/24 01:10:05;;;;;;;90.40;39.45;;;1.80;68.60;;;;;;4126427;28;20026;-79
2022/03/24 01:12:06;;;;;;;92.40;39.70;;;1.80;68.60;;;;;;4128972;28;20026;-79
2022/03/24 01:14:07;;;;;;;92.18;39.08;;;1.80;68.60;;;;;;4114351;28;20389;-80
2022/03/24 01:16:08;;;;;;;95.18;41.10;;;1.80;68.70;;;;;;4140538;28;20476;-78
2022/03/24 01:18:10;;;;;;;92.82;40.92;;;1.80;68.80;;;;;;4111439;28;20047;-79
2022/03/24 01:20:12;;;;;;;94.30;41.47;;;1.80;69.00;;;;;;4135833;28;20092;-79
2022/03/24 01:22:13;;;;;;;91.53;41.03;;;1.80;69.10;;;;;;4121088;28;20050;-79
2022/03/24 01:24:13;;;;;;;93.80;41.15;;;1.80;69.20;;;;;;4112602;28;20031;-80
2022/03/24 01:26:15;;;;;;;106.88;43.22;;;1.80;69.30;;;;;;4112510;28;20023;-79
2022/03/24 01:28:16;;;;;;;89.65;41.40;;;1.80;69.30;;;;;;4111416;28;20047;-79
2022/03/24 01:30:16;;;;;;;84.93;38.75;;;1.80;69.40;;;;;;4108313;28;20031;-80
2022/03/24 01:32:18;;;;;;;88.25;39.10;;;1.80;70.30;;;;;;4121503;28;20035;-80
2022/03/24 01:34:19;;;;;;;87.70;40.10;;;1.80;69.60;;;;;;4119018;28;20032;-80
2022/03/24 01:36:21;;;;;;;92.85;38.92;;;1.90;69.70;;;;;;4112304;28;20106;-80
2022/03/24 01:38:22;;;;;;;82.63;36.17;;;1.90;69.70;;;;;;4104736;28;20059;-80
2022/03/24 01:40:23;;;;;;;93.47;41.05;;;1.90;69.70;;;;;;4115066;28;20420;-80
2022/03/24 01:42:26;;;;;;;82.63;37.80;;;1.90;69.80;;;;;;4093839;28;20054;-80
2022/03/24 01:44:27;;;;;;;87.35;39.35;;;2.00;70.00;;;;;;4113346;28;20476;-80
2022/03/24 01:46:28;;;;;;;85.07;38.90;;;2.00;69.90;;;;;;4136273;28;20926;-80
2022/03/24 01:48:30;;;;;;;81.82;36.50;;;2.10;70.00;;;;;;4118272;28;20239;-79
2022/03/24 01:50:30;;;;;;;86.18;37.08;;;2.10;70.00;;;;;;4134876;28;20030;-80
2022/03/24 01:52:31;;;;;;;78.03;35.13;;;2.10;70.00;;;;;;4140782;28;20589;-80
2022/03/24 01:54:31;;;;;;;83.18;36.30;;;2.10;69.90;;;;;;4109169;28;20097;-80
2022/03/24 01:56:32;;;;;;;86.78;38.22;;;2.10;69.90;;;;;;4108558;28;20026;-80
2022/03/24 01:58:33;;;;;;;80.15;36.45;;;2.10;69.90;;;;;;4120891;28;20025;-80
2022/03/24 02:00:33;;;;;;;82.88;36.85;;;2.20;70.00;;;;;;4117885;28;20386;-80
2022/03/24 02:02:34;;;;;;;90.28;38.40;;;2.20;69.90;;;;;;4111777;28;20497;-80
2022/03/24 02:04:35;;;;;;;87.78;39.50;;;2.20;70.00;;;;;;4096354;29;20664;-80
2022/03/24 02:06:36;;;;;;;85.32;37.63;;;2.20;70.00;;;;;;4113604;28;20030;-80
2022/03/24 02:08:36;;;;;;;79.75;35.53;;;2.20;69.90;;;;;;4116882;28;20395;-80
2022/03/24 02:10:37;;;;;;;82.72;36.13;;;2.20;69.80;;;;;;4107619;28;20031;-79
2022/03/24 02:12:38;;;;;;;84.90;36.97;;;2.20;69.70;;;;;;4115393;28;20115;-80
2022/03/24 02:14:38;;;;;;;86.65;37.92;;;2.10;69.70;;;;;;4115830;28;20531;-79
2022/03/24 02:16:40;;;;;;;90.97;40.00;;;2.20;69.80;;;;;;4108826;28;20134;-79
2022/03/24 02:18:41;;;;;;;93.88;40.08;;;2.20;69.90;;;;;;4116071;28;20050;-80
2022/03/24 02:20:41;;;;;;;91.78;40.80;;;2.20;70.00;;;;;;4123063;28;20479;-80
2022/03/24 02:22:44;;;;;;;92.40;39.75;;;2.10;69.90;;;;;;4130746;28;20032;-79
2022/03/24 02:24:45;;;;;;;94.35;41.47;;;2.20;70.00;;;;;;4128133;28;20026;-80
2022/03/24 02:26:46;;;;;;;111.50;42.75;;;2.10;70.00;;;;;;4126174;28;20038;-80
2022/03/24 02:28:47;;;;;;;112.07;47.13;;;2.20;70.10;;;;;;4133336;28;20028;-80
2022/03/24 02:30:49;;;;;;;111.03;46.20;;;2.20;70.20;;;;;;4135486;28;20093;-80
2022/03/24 02:32:51;;;;;;;109.38;44.85;;;2.20;70.30;;;;;;4104648;28;20029;-80
2022/03/24 02:34:52;;;;;;;103.78;44.22;;;2.20;70.50;;;;;;4115889;28;20397;-80
2022/03/24 02:36:52;;;;;;;93.90;41.38;;;2.20;70.60;;;;;;4108620;28;20086;-80
2022/03/24 02:38:53;;;;;;;99.80;44.13;;;2.20;70.60;;;;;;4103342;28;20033;-80
2022/03/24 02:40:54;;;;;;;99.15;40.40;;;2.20;70.60;;;;;;4139815;28;20073;-80
2022/03/24 02:42:54;;;;;;;95.97;42.45;;;2.20;70.50;;;;;;4118448;28;20030;-80
2022/03/24 02:45:05;;;;;;;99.25;41.58;;;2.20;70.40;;;;;;4130399;28;20085;-80
2022/03/24 02:47:06;;;;;;;89.82;41.05;;;2.20;70.30;;;;;;4135501;28;20034;-80
2022/03/24 02:49:08;;;;;;;91.30;38.10;;;2.10;70.20;;;;;;4137996;28;20037;-80
2022/03/24 02:51:09;;;;;;;87.97;38.97;;;2.10;70.20;;;;;;4108201;28;20075;-80
2022/03/24 02:53:10;;;;;;;98.63;40.40;;;2.10;70.10;;;;;;4124333;28;20026;-80
2022/03/24 02:55:10;;;;;;;102.43;41.72;;;2.10;70.10;;;;;;4135867;28;20547;-80
2022/03/24 02:57:11;;;;;;;106.68;40.53;;;2.00;70.00;;;;;;4133332;28;20026;-80
2022/03/24 02:59:12;;;;;;;97.28;40.85;;;2.00;70.00;;;;;;4132988;28;20034;-80
2022/03/24 03:01:12;;;;;;;94.00;41.20;;;2.00;70.10;;;;;;4120378;28;20050;-80
2022/03/24 03:03:13;;;;;;;103.95;40.67;;;1.90;70.20;;;;;;4114224;28;20031;-80
2022/03/24 03:05:14;;;;;;;84.00;37.38;;;1.90;70.20;;;;;;4111494;28;20102;-81
2022/03/24 03:07:14;;;;;;;88.43;37.33;;;1.90;70.30;;;;;;4130735;28;20419;-81
2022/03/24 03:09:16;;;;;;;87.07;38.65;;;1.90;70.20;;;;;;4133323;28;20100;-80
2022/03/24 03:11:17;;;;;;;88.80;38.90;;;1.90;70.30;;;;;;4112645;28;20019;-79
2022/03/24 03:13:17;;;;;;;93.35;39.45;;;1.90;70.20;;;;;;4126699;28;20030;-79
2022/03/24 03:15:18;;;;;;;93.10;39.38;;;1.80;70.10;;;;;;4114379;28;20025;-79
2022/03/24 03:17:19;;;;;;;99.30;39.85;;;1.80;70.20;;;;;;4130778;28;20492;-80
2022/03/24 03:19:19;;;;;;;111.88;40.65;;;1.70;70.20;;;;;;4121386;28;20065;-80
2022/03/24 03:21:20;;;;;;;90.43;38.13;;;1.70;70.20;;;;;;4131358;28;20033;-80
2022/03/24 03:23:21;;;;;;;88.38;37.75;;;1.70;70.20;;;;;;4101969;28;20113;-80
2022/03/24 03:25:22;;;;;;;103.88;39.50;;;1.60;70.20;;;;;;4111260;28;20029;-80
2022/03/24 03:27:24;;;;;;;91.75;41.45;;;1.60;70.40;;;;;;4132825;28;20042;-80
2022/03/24 03:29:24;;;;;;;103.38;40.83;;;1.60;70.50;;;;;;4136040;28;20018;-80
2022/03/24 03:31:25;;;;;;;102.95;42.70;;;1.60;70.60;;;;;;4118388;28;20045;-80
2022/03/24 03:33:26;;;;;;;98.47;40.47;;;1.60;70.70;;;;;;4125914;28;20023;-80
2022/03/24 03:35:29;;;;;;;102.50;41.08;;;1.60;70.80;;;;;;4116472;28;20465;-80
2022/03/24 03:37:30;;;;;;;98.30;40.17;;;1.60;70.90;;;;;;4118208;28;20439;-80
2022/03/24 03:39:31;;;;;;;104.82;42.42;;;1.60;71.10;;;;;;4134054;28;20058;-81
2022/03/24 03:41:31;;;;;;;108.00;41.85;;;1.60;71.00;;;;;;4117405;28;20511;-80
2022/03/24 03:43:32;;;;;;;97.60;42.15;;;1.60;71.00;;;;;;4134468;28;20038;-80
2022/03/24 03:45:34;;;;;;;97.50;40.50;;;1.60;71.10;;;;;;4121996;28;20027;-80
2022/03/24 03:47:35;;;;;;;101.57;43.75;;;1.60;71.20;;;;;;4141058;28;20042;-81
2022/03/24 03:49:36;;;;;;;107.25;43.22;;;1.60;71.30;;;;;;4133519;28;20028;-80
2022/03/24 03:51:37;;;;;;;111.75;44.78;;;1.60;71.50;;;;;;4111683;28;20027;-80
2022/03/24 03:53:38;;;;;;;121.40;46.50;;;1.60;71.60;;;;;;4131938;28;20068;-80
2022/03/24 03:55:39;;;;;;;113.22;46.97;;;1.60;71.80;;;;;;4118903;28;20074;-80
2022/03/24 03:57:40;;;;;;;108.65;45.13;;;1.70;72.10;;;;;;4098796;29;20019;-80
2022/03/24 03:59:40;;;;;;;112.13;45.45;;;1.70;72.40;;;;;;4135254;28;20129;-80
2022/03/24 04:01:41;;;;;;;106.40;45.17;;;1.70;72.50;;;;;;4141217;28;20062;-80
2022/03/24 04:03:42;;;;;;;96.90;41.90;;;1.70;72.60;;;;;;4138038;28;20069;-80
2022/03/24 04:05:43;;;;;;;95.95;41.22;;;1.80;72.70;;;;;;4139731;28;20022;-81
2022/03/24 04:07:43;;;;;;;92.15;40.15;;;1.80;72.70;;;;;;4140329;28;20058;-80
2022/03/24 04:09:45;;;;;;;100.47;40.60;;;1.80;72.80;;;;;;4139362;28;20034;-80
2022/03/24 04:11:46;;;;;;;86.85;37.63;;;1.80;72.60;;;;;;4122194;28;20034;-80
2022/03/24 04:13:46;;;;;;;83.75;37.45;;;1.80;72.60;;;;;;4115442;28;20412;-80
2022/03/24 04:15:47;;;;;;;83.68;35.72;;;1.90;72.50;;;;;;4133033;28;20079;-80
2022/03/24 04:17:49;;;;;;;86.32;35.67;;;1.90;72.50;;;;;;4135390;28;20105;-80
2022/03/24 04:19:50;;;;;;;82.50;35.22;;;1.90;72.50;;;;;;4138899;28;20040;-80
2022/03/24 04:21:50;;;;;;;84.47;35.95;;;1.90;72.50;;;;;;4137383;28;20026;-80
2022/03/24 04:23:51;;;;;;;85.40;35.13;;;2.00;72.60;;;;;;4138061;28;20120;-80
2022/03/24 04:25:51;;;;;;;81.40;33.60;;;1.90;72.50;;;;;;4130472;28;20029;-79
2022/03/24 04:27:52;;;;;;;73.65;30.77;;;2.00;72.70;;;;;;4135165;28;20345;-80
2022/03/24 04:29:53;;;;;;;74.72;32.85;;;2.00;72.70;;;;;;4097964;29;20027;-80
2022/03/24 04:31:55;;;;;;;82.07;31.48;;;2.10;72.70;;;;;;4083738;29;20040;-80
2022/03/24 04:33:55;;;;;;;72.13;32.50;;;2.10;72.70;;;;;;4120155;28;20077;-80
2022/03/24 04:35:58;;;;;;;73.68;33.10;;;2.10;72.60;;;;;;4137908;28;20113;-80
2022/03/24 04:37:58;;;;;;;69.40;31.73;;;2.20;72.50;;;;;;4110304;28;20583;-80
2022/03/24 04:39:59;;;;;;;72.45;32.22;;;2.20;72.40;;;;;;4129130;28;20293;-80
2022/03/24 04:41:59;;;;;;;70.75;31.75;;;2.20;72.40;;;;;;4120384;28;20030;-80
2022/03/24 04:44:01;;;;;;;77.97;31.80;;;2.20;72.40;;;;;;4126794;28;20038;-80
2022/03/24 04:46:02;;;;;;;77.60;33.33;;;2.30;72.50;;;;;;4112556;28;20034;-79
2022/03/24 04:48:03;;;;;;;71.90;32.35;;;2.30;72.40;;;;;;4130952;28;20583;-79
2022/03/24 04:50:05;;;;;;;69.07;32.50;;;2.30;72.30;;;;;;4136237;28;20026;-80
2022/03/24 04:52:06;;;;;;;77.15;34.33;;;2.30;72.20;;;;;;4138047;28;20492;-80
2022/03/24 04:54:06;;;;;;;76.10;35.30;;;2.30;72.30;;;;;;4109316;28;20051;-79
2022/03/24 04:56:08;;;;;;;76.60;34.75;;;2.30;72.10;;;;;;4119394;28;20381;-79
2022/03/24 04:58:09;;;;;;;90.40;36.25;;;2.30;72.00;;;;;;4132974;28;20414;-80
2022/03/24 05:00:11;;;;;;;77.78;33.83;;;2.30;72.60;;;;;;4136387;28;20507;-79
2022/03/24 05:02:15;;;;;;;86.05;36.05;;;2.30;71.90;;;;;;4137224;28;20030;-80
2022/03/24 05:04:17;;;;;;;80.90;34.33;;;2.30;72.00;;;;;;4132332;28;20073;-80
2022/03/24 05:06:18;;;;;;;79.95;36.10;;;2.30;72.00;;;;;;4131276;28;20158;-80
2022/03/24 05:08:18;;;;;;;89.75;37.38;;;2.30;72.10;;;;;;4132989;28;20034;-79
2022/03/24 05:10:19;;;;;;;87.05;36.70;;;2.30;72.30;;;;;;4133584;28;20030;-79
2022/03/24 05:12:20;;;;;;;80.15;35.63;;;2.30;72.30;;;;;;4136481;28;20035;-80
2022/03/24 05:14:21;;;;;;;88.35;37.05;;;2.30;72.50;;;;;;4120828;28;20018;-80
2022/03/24 05:16:21;;;;;;;88.63;38.20;;;2.40;72.80;;;;;;4109790;28;20038;-79
2022/03/24 05:18:24;;;;;;;94.93;38.10;;;2.40;73.00;;;;;;4111124;28;20027;-80
2022/03/24 05:20:24;;;;;;;86.00;35.33;;;2.50;73.20;;;;;;4109592;28;20035;-79
2022/03/24 05:22:25;;;;;;;84.30;36.72;;;2.50;73.40;;;;;;4127565;28;20084;-79
2022/03/24 05:24:25;;;;;;;92.28;37.42;;;2.50;73.50;;;;;;4133613;28;20373;-79
2022/03/24 05:26:26;;;;;;;84.38;36.03;;;2.50;73.70;;;;;;4130360;28;20019;-79
2022/03/24 05:28:27;;;;;;;90.13;36.05;;;2.60;73.90;;;;;;4129843;28;20124;-80
2022/03/24 05:30:28;;;;;;;90.18;36.83;;;2.60;74.00;;;;;;4097423;28;20034;-79
2022/03/24 05:32:28;;;;;;;90.57;38.13;;;2.70;74.10;;;;;;4112943;28;20106;-79
2022/03/24 05:34:29;;;;;;;84.95;36.60;;;2.70;74.10;;;;;;4124815;28;20702;-79
2022/03/24 05:36:30;;;;;;;78.97;34.70;;;2.80;74.00;;;;;;4127124;28;20085;-79
2022/03/24 05:38:30;;;;;;;79.47;34.35;;;2.80;73.80;;;;;;4131549;28;20042;-80
2022/03/24 05:40:31;;;;;;;83.03;34.50;;;2.90;73.70;;;;;;4106749;28;20080;-79
2022/03/24 05:42:32;;;;;;;97.50;39.10;;;3.00;73.60;;;;;;4128005;28;20038;-79
2022/03/24 05:44:32;;;;;;;92.25;39.42;;;3.00;73.40;;;;;;4113322;28;20034;-80
2022/03/24 05:46:39;;;;;;;85.85;38.00;;;3.00;73.20;;;;;;4126330;28;20026;-80
2022/03/24 05:48:40;;;;;;;79.88;34.10;;;3.10;73.20;;;;;;4103384;28;20396;-80
2022/03/24 05:50:40;;;;;;;85.97;34.92;;;3.10;73.10;;;;;;4120665;28;20019;-79
2022/03/24 05:52:41;;;;;;;88.50;33.85;;;3.10;72.80;;;;;;4128844;28;20026;-79
2022/03/24 05:54:42;;;;;;;73.85;32.85;;;3.10;72.60;;;;;;4111311;28;20407;-79
2022/03/24 05:56:42;;;;;;;79.43;34.45;;;3.10;72.30;;;;;;4125439;28;20030;-79
2022/03/24 05:58:43;;;;;;;92.25;33.10;;;3.10;72.10;;;;;;4126386;28;20034;-79
2022/03/24 06:00:44;;;;;;;83.03;33.00;;;3.10;71.80;;;;;;4091933;28;20029;-79
2022/03/24 06:02:44;;;;;;;86.20;33.78;;;3.10;71.80;;;;;;4095646;28;20023;-79
2022/03/24 06:04:45;;;;;;;91.35;34.03;;;3.10;71.70;;;;;;4138365;28;20022;-79
2022/03/24 06:06:45;;;;;;;70.20;32.33;;;3.20;71.60;;;;;;4128574;28;20038;-79
2022/03/24 06:08:47;;;;;;;77.75;33.47;;;3.10;72.20;;;;;;4127014;28;20602;-78
2022/03/24 06:10:49;;;;;;;77.60;32.08;;;3.10;71.40;;;;;;4115890;28;20022;-78
2022/03/24 06:12:50;;;;;;;83.13;31.13;;;3.10;71.40;;;;;;4138891;28;20634;-77
2022/03/24 06:14:51;;;;;;;76.70;30.45;;;3.10;71.40;;;;;;4106122;28;20035;-78
2022/03/24 06:16:52;;;;;;;75.78;31.83;;;3.10;71.40;;;;;;4131206;28;20022;-78
2022/03/24 06:18:52;;;;;;;73.28;31.15;;;3.10;71.40;;;;;;4135338;28;20475;-78
2022/03/24 06:20:53;;;;;;;66.55;28.65;;;3.10;71.40;;;;;;4096897;28;20437;-78
2022/03/24 06:22:54;;;;;;;68.22;29.67;;;3.10;71.40;;;;;;4116773;28;20018;-78
2022/03/24 06:24:54;;;;;;;76.43;30.83;;;3.10;71.40;;;;;;4128230;28;20109;-78
2022/03/24 06:26:55;;;;;;;61.00;26.50;;;3.10;71.60;;;;;;4130716;28;20423;-78
2022/03/24 06:28:55;;;;;;;65.38;28.35;;;3.10;71.60;;;;;;4120849;28;20123;-78
2022/03/24 06:30:56;;;;;;;65.78;28.73;;;3.20;71.70;;;;;;4125528;28;20488;-78
2022/03/24 06:32:57;;;;;;;60.97;28.48;;;3.20;71.80;;;;;;4136144;28;20522;-77
2022/03/24 06:34:58;;;;;;;73.22;29.85;;;3.20;72.60;;;;;;4133449;28;20472;-77
2022/03/24 06:36:59;;;;;;;85.13;31.15;;;3.20;72.10;;;;;;4124499;28;20455;-78
2022/03/24 06:39:00;;;;;;;70.85;30.50;;;3.30;72.30;;;;;;4130078;28;20030;-78
2022/03/24 06:41:02;;;;;;;74.78;31.05;;;3.30;72.30;;;;;;4131311;28;20023;-78
2022/03/24 06:43:02;;;;;;;65.03;30.35;;;3.40;72.50;;;;;;4125330;28;20388;-78
2022/03/24 06:45:04;;;;;;;69.00;29.70;;;3.40;72.50;;;;;;4135474;28;20126;-78
2022/03/24 06:47:05;;;;;;;63.72;29.25;;;3.40;72.60;;;;;;4136529;28;20121;-78
2022/03/24 06:49:06;;;;;;;70.90;30.65;;;3.50;72.70;;;;;;4111727;28;20034;-78
2022/03/24 06:51:07;;;;;;;73.70;31.13;;;3.60;72.80;;;;;;4135950;28;20061;-78
2022/03/24 06:53:08;;;;;;;68.88;31.05;;;3.60;72.90;;;;;;4120993;28;20026;-78
2022/03/24 06:55:09;;;;;;;70.47;31.85;;;3.60;72.80;;;;;;4105436;28;20425;-78
2022/03/24 06:57:14;;;;;;;71.35;30.13;;;3.70;72.90;;;;;;4135279;28;20459;-77
2022/03/24 06:59:14;;;;;;;73.53;33.50;;;3.80;73.00;;;;;;4111189;28;20477;-78
2022/03/24 07:01:15;;;;;;;78.32;32.95;;;3.80;72.90;;;;;;4111504;28;20046;-78
2022/03/24 07:03:16;;;;;;;81.93;33.60;;;3.90;72.90;;;;;;4093850;28;20133;-78
2022/03/24 07:05:17;;;;;;;78.65;32.42;;;3.90;72.90;;;;;;4134693;28;20037;-78
2022/03/24 07:07:17;;;;;;;85.00;35.05;;;4.00;73.00;;;;;;4133266;28;20030;-78
2022/03/24 07:09:18;;;;;;;89.53;35.10;;;4.10;73.20;;;;;;4110641;28;20536;-78
2022/03/24 07:11:19;;;;;;;80.63;33.83;;;4.10;73.20;;;;;;4119653;28;20030;-78
2022/03/24 07:13:20;;;;;;;81.68;34.85;;;4.20;73.40;;;;;;4130568;28;20796;-78
2022/03/24 07:15:22;;;;;;;76.35;32.25;;;4.30;73.60;;;;;;4131307;28;20026;-78
2022/03/24 07:17:23;;;;;;;81.60;36.05;;;4.40;73.80;;;;;;4109253;28;20074;-78
2022/03/24 07:19:24;;;;;;;87.72;35.22;;;4.50;73.90;;;;;;4118357;28;20503;-78
2022/03/24 07:21:24;;;;;;;79.40;33.58;;;4.60;74.10;;;;;;4111783;28;20037;-78
2022/03/24 07:23:25;;;;;;;77.53;34.20;;;4.60;74.10;;;;;;4135898;28;20660;-78
2022/03/24 07:25:26;;;;;;;76.05;33.83;;;4.80;74.10;;;;;;4108880;28;20102;-78
2022/03/24 07:27:26;;;;;;;78.57;31.95;;;4.90;74.10;;;;;;4098459;28;20034;-78
2022/03/24 07:29:27;;;;;;;82.55;34.47;;;5.00;74.10;;;;;;4117966;28;20412;-78
2022/03/24 07:31:27;;;;;;;87.35;34.05;;;5.10;74.10;;;;;;4103091;28;20122;-78
2022/03/24 07:33:28;;;;;;;70.05;32.30;;;5.20;74.00;;;;;;4135867;28;20042;-78
2022/03/24 07:35:29;;;;;;;75.60;34.20;;;5.30;73.90;;;;;;4113125;28;20027;-77
2022/03/24 07:37:31;;;;;;;77.30;34.88;;;5.40;73.70;;;;;;4090670;28;20063;-78
2022/03/24 07:39:32;;;;;;;70.78;32.42;;;5.40;73.60;;;;;;4125553;28;20097;-78
2022/03/24 07:41:32;;;;;;;76.22;32.65;;;5.50;73.50;;;;;;4118476;28;20577;-78
2022/03/24 07:43:33;;;;;;;77.50;34.17;;;5.60;73.50;;;;;;4137507;28;20022;-78
2022/03/24 07:45:38;;;;;;;71.38;32.25;;;5.70;73.60;;;;;;4118816;28;20452;-78
2022/03/24 07:48:10;;;;;;;72.68;32.53;;;5.80;73.60;;;;;;4109969;28;20070;-78
2022/03/24 07:50:11;;;;;;;69.40;32.25;;;5.90;73.50;;;;;;4129642;28;20092;-78
2022/03/24 07:52:13;;;;;;;74.88;33.10;;;6.00;73.40;;;;;;4134702;28;20030;-78
2022/03/24 07:54:13;;;;;;;72.80;33.38;;;6.10;73.20;;;;;;4118025;28;20038;-78
2022/03/24 07:56:14;;;;;;;75.07;34.72;;;6.20;73.10;;;;;;4118669;28;20090;-78
2022/03/24 07:58:16;;;;;;;74.85;33.28;;;6.30;73.00;;;;;;4090452;29;20035;-78
2022/03/24 08:00:17;;;;;;;79.93;34.63;;;6.30;72.90;;;;;;4117011;28;20114;-78
2022/03/24 08:02:17;;;;;;;74.60;34.90;;;6.50;72.60;;;;;;4133309;28;20092;-78
2022/03/24 08:04:18;;;;;;;77.13;33.25;;;6.60;72.20;;;;;;4117415;28;20031;-78
2022/03/24 08:06:19;;;;;;;79.10;35.90;;;6.60;71.60;;;;;;4134478;28;20029;-78
2022/03/24 08:08:20;;;;;;;92.82;36.08;;;6.70;71.00;;;;;;4098873;28;20050;-78
2022/03/24 08:10:21;;;;;;;81.28;34.20;;;6.80;70.70;;;;;;4133823;28;20053;-78
2022/03/24 08:12:21;;;;;;;80.20;35.58;;;6.90;68.70;;;;;;4117883;28;20037;-78
2022/03/24 08:14:22;;;;;;;73.47;33.85;;;7.00;67.80;;;;;;4138704;28;20042;-78
2022/03/24 08:16:25;;;;;;;77.75;33.10;;;7.10;66.50;;;;;;4114593;28;20026;-78
2022/03/24 08:18:26;;;;;;;77.93;33.30;;;7.10;65.80;;;;;;4113347;28;20094;-78
2022/03/24 08:20:27;;;;;;;80.47;34.80;;;7.20;65.40;;;;;;4134950;28;20030;-78
2022/03/24 08:22:27;;;;;;;80.60;35.25;;;7.30;65.10;;;;;;4133990;28;20025;-78
2022/03/24 08:24:28;;;;;;;81.10;35.35;;;7.30;64.60;;;;;;4115677;28;20033;-78
2022/03/24 08:26:28;;;;;;;66.72;30.80;;;7.40;64.70;;;;;;4108349;28;20507;-78
2022/03/24 08:28:29;;;;;;;71.80;31.98;;;7.50;64.50;;;;;;4118094;28;20042;-77
2022/03/24 08:30:29;;;;;;;73.72;33.28;;;7.50;64.60;;;;;;4132498;28;20777;-78
2022/03/24 08:32:30;;;;;;;70.80;34.08;;;7.60;64.60;;;;;;4102249;28;20038;-78
2022/03/24 08:34:31;;;;;;;76.55;31.80;;;7.70;64.60;;;;;;4118314;28;20018;-78
2022/03/24 08:36:31;;;;;;;74.57;33.88;;;7.80;64.30;;;;;;4116599;28;20054;-78
2022/03/24 08:38:32;;;;;;;74.13;32.97;;;7.90;64.10;;;;;;4118397;28;20419;-78
2022/03/24 08:40:33;;;;;;;85.32;31.65;;;7.90;63.90;;;;;;4112320;28;20090;-78
2022/03/24 08:42:36;;;;;;;90.00;34.90;;;8.00;64.00;;;;;;4132998;28;20064;-78
2022/03/24 08:44:36;;;;;;;68.75;30.83;;;8.10;63.60;;;;;;4113476;28;20109;-78
2022/03/24 08:46:37;;;;;;;69.75;32.17;;;8.20;63.50;;;;;;4119225;28;20031;-78
2022/03/24 08:48:38;;;;;;;77.78;32.33;;;8.30;63.50;;;;;;4121719;28;20060;-78
2022/03/24 08:50:38;;;;;;;65.75;31.35;;;8.40;64.00;;;;;;4130131;28;20029;-78
2022/03/24 08:52:41;;;;;;;72.32;33.08;;;8.50;63.10;;;;;;4135726;28;20406;-77
2022/03/24 08:54:42;;;;;;;81.22;33.55;;;8.50;62.70;;;;;;4127243;28;20021;-78
2022/03/24 08:56:43;;;;;;;70.07;31.83;;;8.70;62.90;;;;;;4134685;28;20549;-78
2022/03/24 08:58:43;;;;;;;81.55;36.17;;;8.70;62.30;;;;;;4114983;28;20046;-77
2022/03/24 09:00:46;;;;;;;74.60;33.67;;;8.80;61.40;;;;;;4131165;28;20030;-78
2022/03/24 09:02:48;;;;;;;81.93;34.50;;;8.90;60.90;;;;;;4113016;28;20034;-78
2022/03/24 09:04:49;;;;;;;70.72;31.88;;;9.00;60.50;;;;;;4135488;28;20042;-78
2022/03/24 09:06:49;;;;;;;79.72;33.80;;;9.10;61.00;;;;;;4132936;28;20469;-78
2022/03/24 09:08:50;;;;;;;72.97;33.70;;;9.10;60.90;;;;;;4092735;29;20126;-78
2022/03/24 09:10:51;;;;;;;73.88;33.88;;;9.20;60.30;;;;;;4115583;28;20022;-78
2022/03/24 09:12:51;;;;;;;75.13;34.05;;;9.30;60.40;;;;;;4108557;28;20681;-78
2022/03/24 09:14:52;;;;;;;70.50;32.85;;;9.40;60.30;;;;;;4092558;28;20043;-78
2022/03/24 09:16:53;;;;;;;78.43;35.40;;;9.50;60.00;;;;;;4122728;28;20023;-78
2022/03/24 09:18:53;;;;;;;65.45;30.60;;;9.50;60.10;;;;;;4134629;28;20064;-78
2022/03/24 09:20:54;;;;;;;70.60;32.13;;;9.60;60.20;;;;;;4117077;28;20034;-78
2022/03/24 09:22:54;;;;;;;78.35;33.38;;;9.70;60.50;;;;;;4130528;28;20149;-78
2022/03/24 09:24:55;;;;;;;70.75;32.30;;;9.80;60.40;;;;;;4099000;28;20027;-78
2022/03/24 09:26:56;;;;;;;68.72;32.45;;;9.90;60.10;;;;;;4129798;28;20026;-78
2022/03/24 09:28:58;;;;;;;76.47;34.30;;;10.00;60.20;;;;;;4124120;28;20657;-78
2022/03/24 09:30:58;;;;;;;74.25;35.30;;;10.10;59.60;;;;;;4131056;28;20519;-78
2022/03/24 09:32:59;;;;;;;75.55;33.90;;;10.20;59.20;;;;;;4089048;28;20042;-78
2022/03/24 09:35:01;;;;;;;91.05;34.13;;;10.30;59.40;;;;;;4129825;28;20423;-78
2022/03/24 09:37:02;;;;;;;77.32;32.58;;;10.30;59.40;;;;;;4131882;28;20046;-78
2022/03/24 09:39:03;;;;;;;74.72;32.70;;;10.40;59.40;;;;;;4130188;28;20030;-78
2022/03/24 09:41:05;;;;;;;71.22;32.58;;;10.50;59.30;;;;;;4127898;28;20044;-78
2022/03/24 09:43:07;;;;;;;75.93;33.58;;;10.60;59.00;;;;;;4128245;28;20494;-78
2022/03/24 09:45:09;;;;;;;78.07;34.17;;;10.70;58.80;;;;;;4115480;28;20040;-79
2022/03/24 09:47:12;;;;;;;71.82;34.15;;;10.80;58.40;;;;;;4132838;28;20231;-78
2022/03/24 09:49:12;;;;;;;107.80;36.95;;;10.90;57.70;;;;;;4089827;29;20119;-78
2022/03/24 09:51:14;;;;;;;93.35;36.22;;;11.00;57.60;;;;;;4132798;28;20077;-78
2022/03/24 09:53:15;;;;;;;70.90;32.17;;;11.00;56.60;;;;;;4105881;28;20607;-78
2022/03/24 09:55:17;;;;;;;84.20;35.03;;;11.10;56.80;;;;;;4095494;28;20039;-78
2022/03/24 09:57:18;;;;;;;72.82;32.28;;;11.20;56.20;;;;;;4126993;28;20653;-78
2022/03/24 09:59:20;;;;;;;73.10;33.38;;;11.20;55.70;;;;;;4133222;28;20030;-78
2022/03/24 10:01:20;;;;;;;82.05;32.60;;;11.30;55.60;;;;;;4129083;28;20030;-79
2022/03/24 10:03:22;;;;;;;71.90;33.85;;;11.30;55.40;;;;;;4113947;28;20058;-79
2022/03/24 10:05:22;;;;;;;73.00;31.90;;;11.40;56.50;;;;;;4119294;28;20034;-78
2022/03/24 10:07:25;;;;;;;76.30;33.30;;;11.50;55.90;;;;;;4130709;28;20480;-78
2022/03/24 10:09:40;;;;;;;68.97;32.28;;;11.60;55.40;;;;;;4129703;28;20026;-79
2022/03/24 10:11:48;;;;;;;87.53;32.42;;;11.60;54.60;;;;;;4130814;28;20030;-79
2022/03/24 10:13:51;;;;;;;62.97;29.77;;;11.70;54.60;;;;;;4088826;28;20074;-79
2022/03/24 10:15:52;;;;;;;72.15;31.65;;;11.70;54.80;;;;;;4133138;28;20120;-79
2022/03/24 10:17:54;;;;;;;73.22;33.42;;;11.80;55.00;;;;;;4123329;28;20053;-78
2022/03/24 10:20:15;;;;;;;67.18;31.35;;;11.80;53.90;;;;;;4116299;28;20035;-78
2022/03/24 10:22:15;;;;;;;70.35;30.85;;;11.90;54.00;;;;;;4112892;28;20560;-79
2022/03/24 10:24:22;;;;;;;67.80;31.17;;;12.00;54.20;;;;;;4110303;28;20062;-79
2022/03/24 10:26:22;;;;;;;67.68;31.23;;;12.00;53.00;;;;;;4131265;28;20627;-79
2022/03/24 10:28:24;;;;;;;76.50;33.53;;;12.10;53.70;;;;;;4107337;28;20035;-78
2022/03/24 10:30:26;;;;;;;70.13;33.25;;;12.10;53.90;;;;;;4131340;28;20484;-78
2022/03/24 10:32:32;;;;;;;66.75;32.83;;;12.20;54.10;;;;;;4129960;28;20065;-79
2022/03/24 10:34:34;;;;;;;69.60;34.42;;;12.30;54.50;;;;;;4127230;28;20045;-79
2022/03/24 10:36:35;;;;;;;72.38;35.40;;;12.30;54.30;;;;;;4132595;28;20037;-79
2022/03/24 10:38:37;;;;;;;67.35;33.47;;;12.40;54.30;;;;;;4114936;28;20528;-79
2022/03/24 10:40:38;;;;;;;64.20;31.98;;;12.40;54.10;;;;;;4120127;28;20397;-79
2022/03/24 10:42:40;;;;;;;67.35;33.45;;;12.40;54.00;;;;;;4126105;28;20058;-79
2022/03/24 10:45:19;;;;;;;72.60;33.40;;;12.50;53.80;;;;;;4131603;28;20029;-79
2022/03/24 10:47:36;;;;;;;68.90;31.38;;;12.60;53.30;;;;;;4115756;28;20995;-79
2022/03/24 10:49:36;;;;;;;70.38;29.73;;;12.60;52.40;;;;;;4128052;28;20439;-79
2022/03/24 10:51:37;;;;;;;73.15;33.20;;;12.60;51.20;;;;;;4134216;28;20034;-79
2022/03/24 10:53:42;;;;;;;65.95;31.67;;;12.70;51.50;;;;;;4134563;28;20430;-79
2022/03/24 10:55:50;;;;;;;69.47;30.63;;;12.80;50.50;;;;;;4108589;28;20047;-79
2022/03/24 10:57:51;;;;;;;65.13;29.38;;;12.80;51.10;;;;;;4120471;28;20502;-79
2022/03/24 10:59:58;;;;;;;68.88;30.30;;;12.90;50.90;;;;;;4130545;28;20030;-78
2022/03/24 11:01:59;;;;;;;63.90;31.17;;;13.00;49.90;;;;;;4127997;28;20023;-79
2022/03/24 11:03:59;;;;;;;66.07;31.15;;;12.90;49.20;;;;;;4130778;28;20555;-79
2022/03/24 11:06:08;;;;;;;57.90;28.98;;;13.00;49.40;;;;;;4134060;28;20029;-79
2022/03/24 11:08:09;;;;;;;64.78;30.02;;;13.10;50.50;;;;;;4124551;28;20049;-79
2022/03/24 11:10:13;;;;;;;63.65;30.35;;;13.10;49.90;;;;;;4131404;28;20026;-79
2022/03/24 11:12:26;;;;;;;75.13;31.88;;;13.20;49.00;;;;;;4131950;28;20080;-79
2022/03/24 11:14:27;;;;;;;66.80;30.23;;;13.30;49.30;;;;;;4130513;28;20396;-79
2022/03/24 11:16:29;;;;;;;69.40;31.58;;;13.30;49.80;;;;;;4118885;28;20027;-77
2022/03/24 11:18:30;;;;;;;69.20;32.73;;;13.40;49.70;;;;;;4089977;28;20042;-79
2022/03/24 11:20:37;;;;;;;71.15;34.40;;;13.60;50.30;;;;;;4098019;28;20270;-79
2022/03/24 11:22:48;;;;;;;70.78;33.40;;;13.50;50.60;;;;;;4132600;28;20029;-79
2022/03/24 11:24:49;;;;;;;66.88;34.35;;;13.50;50.80;;;;;;4111369;28;20372;-79
2022/03/24 11:26:49;;;;;;;82.15;34.85;;;13.60;51.00;;;;;;4129829;28;20042;-80
2022/03/24 11:28:54;;;;;;;77.88;36.05;;;13.60;50.80;;;;;;4128763;28;20443;-79
2022/03/24 11:30:54;;;;;;;69.85;34.53;;;13.70;50.50;;;;;;4132886;28;20048;-79